createdAt,value
2022-11-16T10:10:40.424Z,5.40
2022-11-16T10:13:20.529Z,5.80
2022-11-16T10:16:00.445Z,4.63
2022-11-16T10:18:41.452Z,4.30
2022-11-16T10:21:20.868Z,4.27
2022-11-16T10:24:03.968Z,4.00
2022-11-16T10:26:39.874Z,5.00
2022-11-16T10:29:35.597Z,4.07
2022-11-16T10:32:15.449Z,3.83
2022-11-16T10:34:51.799Z,4.40
2022-11-16T10:37:20.511Z,3.87
2022-11-16T10:39:50.332Z,4.77
2022-11-16T10:42:27.261Z,4.70
2022-11-16T10:44:59.665Z,4.50
2022-11-16T10:47:35.547Z,4.70
2022-11-16T10:50:09.705Z,4.37
2022-11-16T10:52:37.892Z,4.30
2022-11-16T10:55:06.833Z,4.30
2022-11-16T10:57:57.682Z,4.40
2022-11-16T11:00:41.733Z,4.17
2022-11-16T11:03:11.850Z,4.70
2022-11-16T11:05:50.601Z,5.10
2022-11-16T11:08:27.608Z,3.90
2022-11-16T11:11:23.941Z,5.13
2022-11-16T11:14:11.425Z,4.00
2022-11-16T11:16:41.531Z,4.50
2022-11-16T11:19:20.444Z,4.27
2022-11-16T11:21:49.005Z,4.30
2022-11-16T11:24:43.457Z,4.70
2022-11-16T11:27:06.943Z,4.80
2022-11-16T11:29:38.569Z,4.50
2022-11-16T11:32:09.632Z,3.70
2022-11-16T11:34:42.596Z,4.40
2022-11-16T11:37:16.717Z,4.00
2022-11-16T11:39:44.897Z,4.17
2022-11-16T11:42:23.762Z,3.90
2022-11-16T11:44:59.259Z,4.30
2022-11-16T11:47:57.413Z,4.33
2022-11-16T11:50:33.782Z,4.38
2022-11-16T11:53:07.287Z,4.30
2022-11-16T11:55:35.909Z,3.77
2022-11-16T11:58:05.691Z,4.10
2022-11-16T12:00:43.404Z,4.93
2022-11-16T12:03:50.551Z,4.40
2022-11-16T12:06:23.875Z,4.27
2022-11-16T12:09:05.732Z,4.30
2022-11-16T12:11:48.429Z,3.40
2022-11-16T12:14:26.761Z,4.35
2022-11-16T12:17:05.083Z,4.00
2022-11-16T12:19:50.140Z,3.60
2022-11-16T12:22:35.614Z,3.70
2022-11-16T12:25:19.059Z,4.00
2022-11-16T12:27:57.363Z,2.83
2022-11-16T12:30:25.984Z,3.40
2022-11-16T12:33:10.745Z,3.30
2022-11-16T12:35:58.094Z,3.43
2022-11-16T12:38:42.182Z,3.57
2022-11-16T12:41:34.231Z,2.97
2022-11-16T12:44:05.967Z,4.00
2022-11-16T12:46:45.201Z,3.73
2022-11-16T12:49:45.631Z,3.13
2022-11-16T12:52:25.474Z,2.50
2022-11-16T12:55:27.826Z,3.33
2022-11-16T12:58:08.480Z,3.17
2022-11-16T13:00:50.022Z,2.80
2022-11-16T13:03:23.541Z,2.80
2022-11-16T13:05:59.276Z,2.67
2022-11-16T13:08:45.343Z,3.13
2022-11-16T13:11:19.507Z,2.17
2022-11-16T13:13:53.729Z,2.63
2022-11-16T13:16:23.739Z,2.53
2022-11-16T13:18:53.266Z,3.80
2022-11-16T13:21:36.891Z,3.30
2022-11-16T13:24:15.698Z,2.30
2022-11-16T13:26:49.323Z,2.00
2022-11-16T13:29:27.177Z,2.13
2022-11-16T13:32:00.891Z,3.87
2022-11-16T13:34:32.868Z,3.00
2022-11-16T13:37:02.301Z,2.00
2022-11-16T13:40:06.948Z,1.57
2022-11-16T13:42:38.283Z,1.47
2022-11-16T13:45:09.897Z,1.53
2022-11-16T13:47:38.638Z,1.70
2022-11-16T13:50:18.193Z,1.63
2022-11-16T13:55:43.146Z,1.80
2022-11-16T13:58:19.944Z,2.03
2022-11-16T14:01:01.948Z,2.10
2022-11-16T14:03:33.246Z,2.07
2022-11-16T14:06:01.399Z,2.03
2022-11-16T14:08:51.523Z,1.50
2022-11-16T14:11:39.622Z,1.97
2022-11-16T14:14:11.631Z,2.30
2022-11-16T14:16:57.414Z,1.40
2022-11-16T14:19:56.369Z,2.40
2022-11-16T14:22:50.235Z,1.60
2022-11-16T14:25:41.407Z,1.60
2022-11-16T14:28:33.614Z,1.90
2022-11-16T14:31:10.412Z,2.00
2022-11-16T14:33:42.761Z,2.13
2022-11-16T14:36:12.160Z,1.90
2022-11-16T14:38:43.069Z,1.87
2022-11-16T14:41:21.127Z,1.53
2022-11-16T14:43:51.546Z,3.40
2022-11-16T14:46:23.768Z,2.57
2022-11-16T14:48:52.070Z,4.70
2022-11-16T14:51:24.124Z,3.73
2022-11-16T14:53:55.420Z,2.97
2022-11-16T14:56:25.099Z,3.05
2022-11-16T14:58:55.042Z,3.33
2022-11-16T15:01:25.858Z,2.50
2022-11-16T15:03:58.349Z,2.33
2022-11-16T15:06:27.449Z,2.43
2022-11-16T15:09:00.750Z,2.57
2022-11-16T15:11:46.577Z,2.70
2022-11-16T15:14:21.269Z,2.70
2022-11-16T15:16:54.494Z,3.27
2022-11-16T15:19:22.818Z,2.10
2022-11-16T15:21:55.431Z,2.43
2022-11-16T15:24:31.048Z,2.80
2022-11-16T15:27:11.820Z,2.20
2022-11-16T15:29:40.018Z,3.00
2022-11-16T15:32:14.774Z,2.70
2022-11-16T15:34:42.649Z,2.50
2022-11-16T15:37:12.271Z,2.50
2022-11-16T15:39:41.137Z,3.30
2022-11-16T15:42:15.796Z,4.80
2022-11-16T15:44:44.253Z,6.05
2022-11-16T15:47:14.181Z,4.93
2022-11-16T15:49:44.121Z,5.00
2022-11-16T15:52:12.222Z,3.40
2022-11-16T15:54:54.282Z,3.17
2022-11-16T15:57:25.146Z,2.50
2022-11-16T15:59:54.964Z,2.90
2022-11-16T16:02:25.465Z,2.80
2022-11-16T16:04:53.717Z,3.83
2022-11-16T16:07:38.162Z,3.80
2022-11-16T16:10:24.787Z,3.70
2022-11-16T16:12:55.510Z,3.60
2022-11-16T16:15:26.667Z,4.10
2022-11-16T16:17:55.508Z,3.37
2022-11-16T16:20:26.096Z,2.93
2022-11-16T16:22:54.715Z,2.67
2022-11-16T16:25:30.842Z,3.03
2022-11-16T16:28:00.314Z,3.80
2022-11-16T16:30:30.603Z,3.23
2022-11-16T16:32:59.074Z,3.47
2022-11-16T16:35:28.311Z,4.13
2022-11-16T16:38:01.899Z,3.90
2022-11-16T16:40:30.445Z,3.30
2022-11-16T16:42:59.842Z,2.80
2022-11-16T16:45:37.192Z,4.50
2022-11-16T16:48:05.694Z,3.47
2022-11-16T16:50:33.745Z,4.22
2022-11-16T16:53:01.745Z,4.27
2022-11-16T16:55:35.721Z,4.10
2022-11-16T16:58:06.909Z,4.10
2022-11-16T17:00:35.080Z,4.40
2022-11-16T17:03:03.178Z,4.93
2022-11-16T17:05:32.730Z,4.63
2022-11-16T17:08:00.921Z,5.20
2022-11-16T17:10:28.871Z,5.20
2022-11-16T17:12:57.593Z,5.63
2022-11-16T17:15:26.914Z,5.80
2022-11-16T17:17:54.970Z,5.97
2022-11-16T17:20:23.002Z,5.17
2022-11-16T17:22:50.862Z,5.10
2022-11-16T17:25:19.222Z,5.27
2022-11-16T17:27:47.198Z,5.83
2022-11-16T17:30:16.503Z,5.33
2022-11-16T17:32:45.771Z,6.50
2022-11-16T17:35:14.255Z,5.97
2022-11-16T17:37:42.144Z,6.30
2022-11-16T17:40:11.436Z,6.97
2022-11-16T17:42:39.631Z,5.30
2022-11-16T17:45:08.623Z,6.10
2022-11-16T17:47:36.490Z,5.67
2022-11-16T17:50:06.609Z,6.53
2022-11-16T17:52:34.838Z,7.03
2022-11-16T17:55:02.710Z,7.40
2022-11-16T17:57:30.880Z,7.53
2022-11-16T17:59:58.938Z,7.88
2022-11-16T18:02:27.305Z,7.17
2022-11-16T18:04:55.334Z,8.18
2022-11-16T18:07:24.583Z,7.73
2022-11-16T18:09:52.506Z,7.80
2022-11-16T18:12:20.599Z,8.10
2022-11-16T18:15:13.572Z,8.17
2022-11-16T18:17:36.490Z,7.57
2022-11-16T18:20:05.093Z,7.20
2022-11-16T18:22:34.576Z,8.63
2022-11-16T18:25:02.600Z,7.10
2022-11-16T18:27:30.710Z,7.90
2022-11-16T18:29:58.686Z,9.70
2022-11-16T18:32:26.562Z,7.93
2022-11-16T18:34:54.941Z,8.77
2022-11-16T18:37:22.985Z,7.37
2022-11-16T18:39:52.275Z,7.80
2022-11-16T18:42:20.300Z,6.75
2022-11-16T18:44:49.010Z,6.80
2022-11-16T18:47:16.840Z,7.30
2022-11-16T18:49:44.916Z,8.33
2022-11-16T18:52:12.845Z,7.53
2022-11-16T18:54:40.966Z,7.70
2022-11-16T18:57:10.583Z,7.07
2022-11-16T18:59:38.475Z,6.67
2022-11-16T19:02:06.576Z,6.27
2022-11-16T19:04:34.597Z,6.37
2022-11-16T19:07:02.667Z,7.10
2022-11-16T19:09:30.725Z,7.80
2022-11-16T19:11:58.658Z,7.90
2022-11-16T19:14:28.001Z,7.67
2022-11-16T19:16:57.399Z,6.70
2022-11-16T19:19:27.726Z,6.90
2022-11-16T19:21:56.874Z,7.30
2022-11-16T19:24:25.318Z,7.70
2022-11-16T19:26:53.327Z,6.87
2022-11-16T19:29:21.270Z,7.30
2022-11-16T19:31:50.619Z,7.03
2022-11-16T19:34:18.494Z,7.00
2022-11-16T19:36:46.515Z,7.00
2022-11-16T19:39:14.388Z,7.20
2022-11-16T19:41:42.247Z,6.27
2022-11-16T19:44:10.454Z,8.17
2022-11-16T19:46:38.364Z,8.30
2022-11-16T19:49:08.744Z,7.13
2022-11-16T19:51:37.075Z,7.30
2022-11-16T19:54:05.623Z,7.40
2022-11-16T19:56:33.691Z,8.57
2022-11-16T19:59:01.713Z,7.70
2022-11-16T20:01:30.033Z,8.20
2022-11-16T20:03:59.430Z,6.47
2022-11-16T20:06:30.778Z,7.40
2022-11-16T20:09:00.720Z,6.20
2022-11-16T20:11:30.370Z,6.33
2022-11-16T20:13:59.558Z,6.90
2022-11-16T20:16:31.680Z,5.67
2022-11-16T20:19:04.683Z,6.22
2022-11-16T20:21:36.289Z,5.40
2022-11-16T20:24:07.019Z,6.30
2022-11-16T20:26:36.910Z,6.80
2022-11-16T20:29:05.462Z,6.13
2022-11-16T20:31:34.843Z,6.37
2022-11-16T20:34:04.362Z,6.10
2022-11-16T20:36:34.734Z,5.60
2022-11-16T20:39:02.774Z,6.83
2022-11-16T20:41:32.168Z,6.13
2022-11-16T20:44:01.810Z,6.23
2022-11-16T20:46:30.950Z,6.00
2022-11-16T20:49:00.768Z,5.53
2022-11-16T20:51:30.338Z,6.53
2022-11-16T20:54:00.064Z,7.30
2022-11-16T20:56:28.191Z,5.87
2022-11-16T20:58:56.837Z,6.07
2022-11-16T21:01:28.737Z,6.30
2022-11-16T21:03:57.029Z,5.67
2022-11-16T21:06:25.137Z,5.60
2022-11-16T21:08:53.363Z,7.27
2022-11-16T21:11:24.901Z,6.23
2022-11-16T21:14:10.874Z,5.70
2022-11-16T21:16:39.330Z,6.53
2022-11-16T21:19:08.053Z,7.10
2022-11-16T21:21:36.227Z,6.43
2022-11-16T21:24:04.429Z,7.10
2022-11-16T21:26:34.546Z,5.63
2022-11-16T21:29:03.221Z,6.80
2022-11-16T21:31:32.567Z,5.60
2022-11-16T21:34:01.528Z,7.43
2022-11-16T21:36:30.968Z,6.40
2022-11-16T21:38:59.204Z,7.07
2022-11-16T21:41:27.846Z,7.43
2022-11-16T21:43:57.519Z,6.43
2022-11-16T21:46:27.408Z,6.50
2022-11-16T21:48:56.931Z,6.20
2022-11-16T21:51:26.770Z,6.40
2022-11-16T21:53:55.444Z,6.20
2022-11-16T21:56:25.266Z,6.20
2022-11-16T21:58:53.701Z,6.00
2022-11-16T22:01:23.588Z,6.10
2022-11-16T22:04:14.308Z,6.50
2022-11-16T22:06:59.806Z,5.30
2022-11-16T22:09:27.836Z,6.47
2022-11-16T22:11:57.854Z,5.63
2022-11-16T22:14:27.710Z,5.70
2022-11-16T22:16:57.130Z,6.40
2022-11-16T22:19:25.005Z,5.60
2022-11-16T22:21:52.853Z,5.90
2022-11-16T22:24:21.223Z,5.63
2022-11-16T22:26:49.387Z,6.60
2022-11-16T22:29:17.403Z,5.70
2022-11-16T22:31:47.139Z,5.33
2022-11-16T22:34:16.594Z,5.93
2022-11-16T22:36:44.480Z,5.83
2022-11-16T22:39:12.496Z,5.57
2022-11-16T22:41:40.355Z,5.40
2022-11-16T22:44:08.214Z,5.57
2022-11-16T22:46:36.230Z,4.90
2022-11-16T22:49:04.121Z,4.37
2022-11-16T22:51:33.537Z,5.10
2022-11-16T22:54:03.217Z,4.27
2022-11-16T22:56:32.909Z,5.33
2022-11-16T22:59:02.272Z,5.00
2022-11-16T23:01:30.346Z,5.20
2022-11-16T23:03:58.637Z,4.67
2022-11-16T23:06:26.611Z,4.90
2022-11-16T23:08:56.116Z,4.90
2022-11-16T23:11:43.640Z,4.87
2022-11-16T23:14:30.594Z,4.83
2022-11-16T23:16:59.081Z,4.20
2022-11-16T23:19:45.183Z,3.97
2022-11-16T23:22:33.961Z,4.20
2022-11-16T23:25:21.051Z,5.07
2022-11-16T23:27:54.824Z,4.90
2022-11-16T23:30:23.071Z,4.07
2022-11-16T23:32:51.322Z,3.67
2022-11-16T23:35:19.512Z,3.22
2022-11-16T23:37:55.572Z,4.03
2022-11-16T23:40:26.818Z,3.60
2022-11-16T23:43:15.313Z,4.67
